Time;durP1;ratioP1;P1;durP2;ratioP2;P2;SDS_P1;SDS_P2;PMS_P1;PMS_P2;Temp;Humidity;BMP_temperature;BMP_pressure;BME280_temperature;BME280_humidity;BME280_pressure;Samples;Min_cycle;Max_cycle;Signal;HPM_P1;HPM_P2
2021/09/09 00:00:47;;;;;;;12.32;7.65;;;18.40;99.90;;;;;;5091915;28;20396;-72
2021/09/09 00:03:16;;;;;;;9.77;8.00;;;18.40;99.90;;;;;;5093253;28;20040;-71
2021/09/09 00:05:41;;;;;;;11.45;8.48;;;18.40;99.90;;;;;;5091988;28;20173;-71
2021/09/09 00:08:07;;;;;;;11.50;8.27;;;18.30;99.90;;;;;;5093101;28;20119;-71
2021/09/09 00:10:32;;;;;;;10.98;7.60;;;18.30;99.90;;;;;;5091518;28;20083;-71
2021/09/09 00:12:58;;;;;;;10.45;7.78;;;18.20;99.90;;;;;;5091911;28;20044;-71
2021/09/09 00:15:25;;;;;;;10.18;7.78;;;18.20;99.90;;;;;;5093295;28;20044;-72
2021/09/09 00:17:50;;;;;;;10.18;7.93;;;18.20;99.90;;;;;;5094397;28;20036;-72
2021/09/09 00:20:16;;;;;;;10.75;7.60;;;18.20;99.90;;;;;;5096873;28;20506;-71
2021/09/09 00:22:42;;;;;;;10.90;7.68;;;18.20;99.90;;;;;;5097025;28;20035;-71
2021/09/09 00:25:08;;;;;;;12.73;8.20;;;18.10;99.90;;;;;;5095918;28;20525;-71
2021/09/09 00:27:34;;;;;;;11.15;7.90;;;18.10;99.90;;;;;;5097566;28;20062;-72
2021/09/09 00:30:00;;;;;;;11.13;8.60;;;18.10;99.90;;;;;;5096894;28;20044;-71
2021/09/09 00:32:25;;;;;;;10.82;7.65;;;18.00;99.90;;;;;;5095668;28;20040;-71
2021/09/09 00:34:52;;;;;;;9.50;7.55;;;18.00;99.90;;;;;;5096863;28;20027;-71
2021/09/09 00:37:18;;;;;;;13.60;8.95;;;18.00;99.90;;;;;;5097195;28;20043;-71
2021/09/09 00:39:44;;;;;;;12.75;8.52;;;17.90;99.90;;;;;;5095279;28;20377;-71
2021/09/09 00:42:09;;;;;;;12.05;8.10;;;17.90;99.90;;;;;;5095468;28;20049;-71
2021/09/09 00:44:35;;;;;;;11.50;8.57;;;17.90;99.90;;;;;;5095750;28;20052;-71
2021/09/09 00:47:06;;;;;;;11.57;7.93;;;18.00;99.90;;;;;;5096773;28;20036;-72
2021/09/09 00:49:33;;;;;;;11.32;8.10;;;17.90;99.90;;;;;;5096488;28;20114;-72
2021/09/09 00:51:59;;;;;;;15.52;7.95;;;17.90;99.90;;;;;;5096646;28;20492;-72
2021/09/09 00:54:25;;;;;;;11.77;8.80;;;17.80;99.90;;;;;;5096677;28;20380;-71
2021/09/09 00:56:51;;;;;;;10.68;8.23;;;17.80;99.90;;;;;;5096723;28;20093;-71
2021/09/09 00:59:17;;;;;;;11.60;8.95;;;17.80;99.90;;;;;;5096352;28;20036;-72
2021/09/09 01:01:44;;;;;;;12.82;8.55;;;17.80;99.90;;;;;;5095364;28;20075;-71
2021/09/09 01:04:10;;;;;;;13.23;9.05;;;17.80;99.90;;;;;;5095992;28;20067;-72
2021/09/09 01:06:35;;;;;;;10.73;8.18;;;17.80;99.90;;;;;;5096863;28;20036;-72
2021/09/09 01:09:03;;;;;;;11.38;8.43;;;17.70;99.90;;;;;;5094615;28;20066;-72
2021/09/09 01:11:28;;;;;;;14.07;9.02;;;17.70;99.90;;;;;;5094849;28;20093;-72
2021/09/09 01:14:05;;;;;;;14.73;9.02;;;17.70;99.90;;;;;;5096402;28;20044;-72
2021/09/09 01:16:30;;;;;;;13.05;10.10;;;17.60;99.90;;;;;;5095213;28;20387;-72
2021/09/09 01:18:56;;;;;;;12.68;9.05;;;17.60;99.90;;;;;;5095735;28;20040;-72
2021/09/09 01:21:23;;;;;;;12.93;9.38;;;17.60;99.90;;;;;;5094665;28;20527;-71
2021/09/09 01:23:52;;;;;;;12.00;9.13;;;17.60;99.90;;;;;;5096217;28;20062;-71
2021/09/09 01:26:17;;;;;;;12.63;9.82;;;17.50;99.90;;;;;;5096126;28;20044;-72
2021/09/09 01:28:43;;;;;;;11.48;9.25;;;17.50;99.90;;;;;;5095613;28;20093;-72
2021/09/09 01:31:09;;;;;;;11.88;9.23;;;17.40;99.90;;;;;;5094607;28;20063;-71
2021/09/09 01:33:34;;;;;;;13.90;10.15;;;17.40;99.90;;;;;;5094506;28;20040;-72
2021/09/09 01:36:00;;;;;;;12.32;9.65;;;17.40;99.90;;;;;;5095978;28;20050;-72
2021/09/09 01:38:25;;;;;;;12.27;10.13;;;17.40;99.90;;;;;;5095840;28;20031;-72
2021/09/09 01:40:51;;;;;;;12.25;9.80;;;17.40;99.90;;;;;;5095481;28;20039;-71
2021/09/09 01:43:16;;;;;;;15.95;10.93;;;17.30;99.90;;;;;;5096069;28;20055;-72
2021/09/09 01:45:42;;;;;;;13.63;9.73;;;17.30;99.90;;;;;;5095573;28;20048;-71
2021/09/09 01:48:08;;;;;;;18.70;10.50;;;17.30;99.90;;;;;;5094506;28;20123;-71
2021/09/09 01:50:34;;;;;;;13.38;10.75;;;17.40;99.90;;;;;;5093983;28;20400;-71
2021/09/09 01:52:59;;;;;;;14.98;10.05;;;17.30;99.90;;;;;;5095566;28;20051;-71
2021/09/09 01:55:25;;;;;;;14.80;11.18;;;17.20;99.90;;;;;;5095487;28;20039;-71
2021/09/09 01:57:54;;;;;;;13.23;10.07;;;17.20;99.90;;;;;;5094370;28;20048;-71
2021/09/09 02:00:20;;;;;;;14.70;10.60;;;17.20;99.90;;;;;;5076970;28;20105;-71
2021/09/09 02:02:45;;;;;;;14.50;10.57;;;17.20;99.90;;;;;;5095151;28;20036;-71
2021/09/09 02:05:12;;;;;;;13.30;10.82;;;17.10;99.90;;;;;;5095278;28;20046;-71
2021/09/09 02:07:37;;;;;;;14.75;11.05;;;17.20;99.90;;;;;;5095148;28;20498;-71
2021/09/09 02:10:04;;;;;;;21.13;13.07;;;17.10;99.90;;;;;;5094808;28;20127;-71
2021/09/09 02:12:30;;;;;;;14.15;11.60;;;17.10;99.90;;;;;;5095375;28;20092;-71
2021/09/09 02:14:55;;;;;;;15.07;10.85;;;17.00;99.90;;;;;;5095199;28;20418;-71
2021/09/09 02:17:21;;;;;;;16.65;12.07;;;17.00;99.90;;;;;;5094895;28;20040;-71
2021/09/09 02:19:46;;;;;;;15.75;11.55;;;17.10;99.90;;;;;;5094827;28;20044;-71
2021/09/09 02:22:12;;;;;;;15.35;10.80;;;17.00;99.90;;;;;;5094837;28;20085;-71
2021/09/09 02:24:44;;;;;;;15.40;11.10;;;16.90;99.90;;;;;;5095172;28;20054;-71
2021/09/09 02:27:11;;;;;;;14.15;10.77;;;16.90;99.90;;;;;;5095367;28;20048;-71
2021/09/09 02:29:37;;;;;;;15.88;11.45;;;16.90;99.90;;;;;;5094363;28;20115;-71
2021/09/09 02:32:03;;;;;;;14.65;11.75;;;16.80;99.90;;;;;;5095170;28;20469;-71
2021/09/09 02:34:28;;;;;;;16.00;12.23;;;16.80;99.90;;;;;;5094891;28;20039;-70
2021/09/09 02:36:54;;;;;;;15.38;11.10;;;16.70;99.90;;;;;;5093396;28;20040;-71
2021/09/09 02:39:19;;;;;;;14.82;11.35;;;16.70;99.90;;;;;;5094656;28;20127;-71
2021/09/09 02:41:45;;;;;;;16.75;13.30;;;16.70;99.90;;;;;;5093732;28;20036;-71
2021/09/09 02:44:10;;;;;;;15.48;11.52;;;16.70;99.90;;;;;;5093517;28;20082;-71
2021/09/09 02:46:36;;;;;;;15.45;11.50;;;16.60;99.90;;;;;;5094362;28;20039;-71
2021/09/09 02:49:01;;;;;;;17.75;12.60;;;16.60;99.90;;;;;;5094206;28;20040;-72
2021/09/09 02:51:27;;;;;;;17.65;12.82;;;16.60;99.90;;;;;;5094249;28;20036;-71
2021/09/09 02:53:53;;;;;;;15.70;11.68;;;16.60;99.90;;;;;;5094188;28;20182;-72
2021/09/09 02:56:18;;;;;;;15.57;11.77;;;16.60;99.90;;;;;;5093302;28;20143;-72
2021/09/09 02:58:44;;;;;;;19.27;12.65;;;16.60;99.90;;;;;;5076080;28;20036;-71
2021/09/09 03:01:09;;;;;;;16.08;12.10;;;16.60;99.90;;;;;;5094247;28;20546;-72
2021/09/09 03:03:35;;;;;;;18.92;12.25;;;16.50;99.90;;;;;;5093034;28;20058;-71
2021/09/09 03:06:00;;;;;;;16.25;13.02;;;16.50;99.90;;;;;;5092722;28;20126;-71
2021/09/09 03:08:26;;;;;;;18.23;12.25;;;16.40;99.90;;;;;;5094236;28;20032;-72
2021/09/09 03:10:51;;;;;;;18.65;13.13;;;16.40;99.90;;;;;;5093523;28;20518;-72
2021/09/09 03:13:17;;;;;;;16.40;12.40;;;16.40;99.90;;;;;;5094260;28;20556;-72
2021/09/09 03:15:43;;;;;;;16.17;12.38;;;16.40;99.90;;;;;;5094137;28;20032;-72
2021/09/09 03:18:08;;;;;;;18.35;12.68;;;16.40;99.90;;;;;;5092668;28;20040;-72
2021/09/09 03:20:34;;;;;;;17.88;13.25;;;16.40;99.90;;;;;;5075224;28;20397;-72
2021/09/09 03:22:59;;;;;;;17.20;13.30;;;16.30;99.90;;;;;;5093533;28;20084;-72
2021/09/09 03:25:25;;;;;;;17.80;13.07;;;16.30;99.90;;;;;;5093765;28;20032;-72
2021/09/09 03:27:51;;;;;;;16.42;12.65;;;16.30;99.90;;;;;;5093808;28;20520;-72
2021/09/09 03:30:16;;;;;;;19.67;13.35;;;16.30;99.90;;;;;;5091783;28;20417;-72
2021/09/09 03:32:42;;;;;;;18.13;13.15;;;16.20;99.90;;;;;;5094008;28;20046;-72
2021/09/09 03:35:08;;;;;;;19.33;14.00;;;16.20;99.90;;;;;;5093736;28;20492;-72
2021/09/09 03:37:33;;;;;;;18.08;13.20;;;16.20;99.90;;;;;;5093846;28;20531;-72
2021/09/09 03:39:59;;;;;;;17.92;13.80;;;16.20;99.90;;;;;;5093590;28;20036;-72
2021/09/09 03:42:24;;;;;;;16.95;14.07;;;16.10;99.90;;;;;;5092450;28;20074;-72
2021/09/09 03:44:50;;;;;;;16.08;12.90;;;16.10;99.90;;;;;;5075728;28;20040;-72
2021/09/09 03:47:16;;;;;;;18.98;13.82;;;16.10;99.90;;;;;;5093732;28;20093;-71
2021/09/09 03:49:41;;;;;;;22.35;13.70;;;16.10;99.90;;;;;;5092054;28;20036;-72
2021/09/09 03:52:07;;;;;;;19.98;14.65;;;16.00;99.90;;;;;;5092427;28;20032;-72
2021/09/09 03:54:32;;;;;;;17.75;12.98;;;16.00;99.90;;;;;;5075329;28;20057;-71
2021/09/09 03:56:58;;;;;;;17.20;14.50;;;16.00;99.90;;;;;;5091954;28;20435;-71
2021/09/09 03:59:24;;;;;;;19.02;14.48;;;15.90;99.90;;;;;;5093138;28;20048;-72
2021/09/09 04:01:49;;;;;;;19.85;15.57;;;15.90;99.90;;;;;;5093177;28;20047;-72
2021/09/09 04:04:15;;;;;;;20.85;14.98;;;15.90;99.90;;;;;;5093653;28;20478;-72
2021/09/09 04:06:40;;;;;;;20.23;14.48;;;15.80;99.90;;;;;;5093247;28;20043;-72
2021/09/09 04:09:06;;;;;;;21.45;15.10;;;15.80;99.90;;;;;;5091627;28;20036;-72
2021/09/09 04:11:32;;;;;;;19.20;15.20;;;15.80;99.90;;;;;;5091997;28;20077;-72
2021/09/09 04:13:57;;;;;;;18.13;13.93;;;15.70;99.90;;;;;;5091752;28;20399;-72
2021/09/09 04:16:23;;;;;;;20.92;15.40;;;15.80;99.90;;;;;;5093114;28;20043;-72
2021/09/09 04:18:48;;;;;;;20.20;15.23;;;15.80;99.90;;;;;;5091745;28;20036;-72
2021/09/09 04:21:14;;;;;;;22.30;15.45;;;15.70;99.90;;;;;;5091624;28;20120;-72
2021/09/09 04:23:40;;;;;;;21.90;16.45;;;15.70;99.90;;;;;;5092091;28;20040;-72
2021/09/09 04:26:05;;;;;;;19.83;14.10;;;15.70;99.90;;;;;;5075290;28;20039;-72
2021/09/09 04:28:31;;;;;;;19.63;15.38;;;15.70;99.90;;;;;;5074883;28;20044;-72
2021/09/09 04:30:56;;;;;;;21.02;15.15;;;15.70;99.90;;;;;;5091572;28;20036;-72
2021/09/09 04:33:22;;;;;;;18.80;16.20;;;15.70;99.90;;;;;;5092952;28;20101;-72
2021/09/09 04:35:48;;;;;;;21.60;15.40;;;15.60;99.90;;;;;;5093177;28;20046;-72
2021/09/09 04:38:13;;;;;;;22.85;16.45;;;15.60;99.90;;;;;;5091847;28;20040;-71
2021/09/09 04:40:39;;;;;;;20.60;16.02;;;15.60;99.90;;;;;;5092587;28;20115;-71
2021/09/09 04:43:06;;;;;;;24.20;16.70;;;15.60;99.90;;;;;;5091889;28;20093;-72
2021/09/09 04:45:32;;;;;;;22.67;16.50;;;15.60;99.90;;;;;;5074660;28;20085;-72
2021/09/09 04:47:58;;;;;;;19.42;14.90;;;15.60;99.90;;;;;;5093287;28;20116;-72
2021/09/09 04:50:24;;;;;;;23.23;16.65;;;15.60;99.90;;;;;;5091545;28;20075;-71
2021/09/09 04:52:50;;;;;;;22.75;17.08;;;15.50;99.90;;;;;;5091670;28;20044;-71
2021/09/09 04:55:16;;;;;;;23.73;16.98;;;15.50;99.90;;;;;;5074929;28;20089;-72
2021/09/09 04:57:41;;;;;;;23.50;17.52;;;15.50;99.90;;;;;;5091476;28;20119;-71
2021/09/09 05:00:09;;;;;;;25.52;17.63;;;15.50;99.90;;;;;;5091295;28;20048;-72
2021/09/09 05:02:34;;;;;;;21.55;17.15;;;15.50;99.90;;;;;;5092389;28;20557;-72
2021/09/09 05:05:00;;;;;;;26.10;17.45;;;15.40;99.90;;;;;;5095413;28;20040;-71
2021/09/09 05:07:25;;;;;;;22.85;17.33;;;15.50;99.90;;;;;;5095509;28;20391;-71
2021/09/09 05:09:51;;;;;;;22.95;17.45;;;15.40;99.90;;;;;;5096067;28;20051;-71
2021/09/09 05:12:16;;;;;;;22.60;16.75;;;15.50;99.90;;;;;;5078028;28;20506;-71
2021/09/09 05:14:42;;;;;;;23.10;17.45;;;15.40;99.90;;;;;;5096535;28;20080;-71
2021/09/09 05:17:08;;;;;;;22.67;17.20;;;15.30;99.90;;;;;;5095396;28;20040;-71
2021/09/09 05:19:33;;;;;;;23.77;17.92;;;15.40;99.90;;;;;;5095688;28;20104;-72
2021/09/09 05:21:59;;;;;;;26.58;17.13;;;15.40;99.90;;;;;;5078131;28;20040;-71
2021/09/09 05:24:25;;;;;;;23.55;17.85;;;15.50;99.90;;;;;;5096147;28;20415;-71
2021/09/09 05:26:54;;;;;;;25.17;18.48;;;15.40;99.90;;;;;;5096029;28;20123;-71
2021/09/09 05:29:22;;;;;;;23.95;18.08;;;15.50;99.90;;;;;;5095901;28;20135;-70
2021/09/09 05:31:48;;;;;;;25.73;17.70;;;15.50;99.90;;;;;;5096085;28;20114;-71
2021/09/09 05:34:14;;;;;;;29.00;17.85;;;15.50;99.90;;;;;;5096303;28;20150;-70
2021/09/09 05:36:39;;;;;;;24.75;17.80;;;15.50;99.90;;;;;;5096425;28;20036;-72
2021/09/09 05:39:05;;;;;;;24.80;19.10;;;15.60;99.90;;;;;;5094312;28;20067;-73
2021/09/09 05:41:31;;;;;;;30.52;19.85;;;15.50;99.90;;;;;;5092828;28;20079;-73
2021/09/09 05:43:56;;;;;;;29.33;19.58;;;15.50;99.90;;;;;;5095956;28;20040;-73
2021/09/09 05:46:23;;;;;;;26.10;18.92;;;15.60;99.90;;;;;;5095640;28;20044;-73
2021/09/09 05:48:49;;;;;;;31.30;19.60;;;15.60;99.90;;;;;;5093537;28;20423;-74
2021/09/09 05:51:14;;;;;;;27.67;19.33;;;15.60;99.90;;;;;;5095158;28;20044;-73
2021/09/09 05:53:40;;;;;;;28.05;19.80;;;15.60;99.90;;;;;;5095798;28;20040;-72
2021/09/09 05:56:05;;;;;;;28.13;20.42;;;15.70;99.90;;;;;;5095627;28;20032;-73
2021/09/09 05:58:31;;;;;;;28.13;19.80;;;15.80;99.90;;;;;;5095338;28;20100;-73
2021/09/09 06:00:57;;;;;;;26.30;17.65;;;15.80;99.90;;;;;;5094199;28;20039;-72
2021/09/09 06:03:25;;;;;;;28.50;19.02;;;15.80;99.90;;;;;;5095724;28;20036;-73
2021/09/09 06:06:01;;;;;;;33.92;20.48;;;15.90;99.90;;;;;;5095420;28;20381;-72
2021/09/09 06:08:27;;;;;;;30.48;21.05;;;16.10;99.90;;;;;;5095804;28;20051;-72
2021/09/09 06:10:53;;;;;;;28.27;18.92;;;16.20;99.90;;;;;;5094994;28;20048;-74
2021/09/09 06:13:19;;;;;;;32.60;20.33;;;16.20;99.90;;;;;;5095286;28;20036;-73
2021/09/09 06:15:44;;;;;;;27.55;19.67;;;16.30;99.90;;;;;;5094233;28;20338;-72
2021/09/09 06:18:10;;;;;;;25.05;18.73;;;16.60;99.90;;;;;;5095537;28;20043;-72
2021/09/09 06:20:36;;;;;;;29.90;19.90;;;16.70;99.90;;;;;;5095260;28;20499;-72
2021/09/09 06:23:01;;;;;;;29.45;18.40;;;16.90;99.90;;;;;;5094955;28;20040;-72
2021/09/09 06:25:27;;;;;;;25.30;18.27;;;17.00;99.90;;;;;;5095040;28;20036;-72
2021/09/09 06:27:52;;;;;;;24.67;19.30;;;17.20;99.90;;;;;;5094062;28;20040;-72
2021/09/09 06:30:18;;;;;;;27.33;19.08;;;17.30;99.90;;;;;;5094544;28;20047;-72
2021/09/09 06:32:43;;;;;;;27.00;19.90;;;17.40;99.90;;;;;;5094752;28;20044;-73
2021/09/09 06:35:09;;;;;;;32.15;21.00;;;17.50;99.90;;;;;;5094826;28;20036;-72
2021/09/09 06:37:35;;;;;;;26.60;20.15;;;17.70;99.90;;;;;;5094653;28;20092;-72
2021/09/09 06:40:00;;;;;;;26.20;18.80;;;17.80;99.90;;;;;;5094253;28;20036;-73
2021/09/09 06:42:28;;;;;;;27.85;18.15;;;17.90;99.90;;;;;;5093631;28;20090;-71
2021/09/09 06:44:53;;;;;;;24.95;19.05;;;17.90;99.90;;;;;;5094617;28;20052;-72
2021/09/09 06:47:19;;;;;;;26.55;19.40;;;17.90;99.90;;;;;;5094663;28;20051;-73
2021/09/09 06:49:45;;;;;;;25.25;17.77;;;18.10;99.90;;;;;;5094089;28;20040;-72
2021/09/09 06:52:10;;;;;;;28.17;20.00;;;18.20;99.90;;;;;;5093275;28;20363;-72
2021/09/09 06:54:36;;;;;;;24.08;18.98;;;18.30;99.90;;;;;;5095134;28;20039;-72
2021/09/09 06:57:02;;;;;;;28.05;20.35;;;18.30;99.90;;;;;;5093416;28;20054;-72
2021/09/09 06:59:27;;;;;;;26.92;19.25;;;18.40;99.90;;;;;;5092745;28;20071;-73
2021/09/09 07:01:53;;;;;;;28.15;20.92;;;18.50;99.90;;;;;;5094308;28;20036;-72
2021/09/09 07:04:18;;;;;;;28.42;20.17;;;18.70;99.90;;;;;;5076017;28;20047;-72
2021/09/09 07:06:44;;;;;;;30.30;21.38;;;18.90;99.90;;;;;;5094140;28;20040;-72
2021/09/09 07:09:10;;;;;;;30.83;20.77;;;19.10;99.90;;;;;;5093662;28;20036;-73
2021/09/09 07:11:35;;;;;;;30.88;20.17;;;19.20;99.90;;;;;;5092643;28;20468;-73
2021/09/09 07:14:01;;;;;;;27.98;18.70;;;19.30;99.90;;;;;;5093972;28;20040;-72
2021/09/09 07:16:26;;;;;;;28.02;20.02;;;19.40;99.90;;;;;;5094644;28;20055;-72
2021/09/09 07:18:52;;;;;;;32.67;20.23;;;19.50;99.90;;;;;;5093984;28;20039;-72
2021/09/09 07:21:18;;;;;;;28.42;19.63;;;19.60;99.90;;;;;;5075939;28;20500;-72
2021/09/09 07:23:44;;;;;;;32.75;20.63;;;19.50;99.90;;;;;;5092961;28;20040;-73
2021/09/09 07:26:10;;;;;;;29.77;20.02;;;19.70;99.90;;;;;;5092783;28;20044;-72
2021/09/09 07:28:36;;;;;;;25.35;18.35;;;19.90;99.90;;;;;;5093590;28;20477;-73
2021/09/09 07:31:01;;;;;;;28.77;20.00;;;20.00;99.90;;;;;;5092514;28;20042;-73
2021/09/09 07:33:27;;;;;;;31.83;19.63;;;20.20;99.90;;;;;;5075928;28;20036;-72
2021/09/09 07:35:52;;;;;;;27.75;21.08;;;20.20;99.90;;;;;;5093706;28;20039;-72
2021/09/09 07:38:18;;;;;;;31.33;19.52;;;20.40;99.90;;;;;;5092858;28;20042;-71
2021/09/09 07:40:44;;;;;;;27.60;21.15;;;20.40;99.90;;;;;;5093077;28;20047;-72
2021/09/09 07:43:09;;;;;;;34.78;21.05;;;20.50;99.90;;;;;;5093957;28;20051;-72
2021/09/09 07:45:35;;;;;;;35.58;21.98;;;20.60;99.90;;;;;;5093619;28;20391;-72
2021/09/09 07:48:01;;;;;;;31.90;18.58;;;20.70;99.90;;;;;;5093634;28;20048;-72
2021/09/09 07:50:27;;;;;;;29.73;20.60;;;21.00;99.90;;;;;;5093451;28;20043;-72
2021/09/09 07:52:52;;;;;;;33.97;21.15;;;21.20;99.90;;;;;;5093407;28;20036;-72
2021/09/09 07:55:18;;;;;;;33.60;19.92;;;21.20;99.90;;;;;;5092226;28;20100;-72
2021/09/09 07:57:45;;;;;;;30.67;20.13;;;21.10;99.90;;;;;;5092205;28;20045;-72
2021/09/09 08:00:11;;;;;;;32.47;19.27;;;21.20;99.90;;;;;;5075041;28;20040;-71
2021/09/09 08:02:38;;;;;;;33.75;20.77;;;21.30;99.90;;;;;;5092323;28;20072;-72
2021/09/09 08:05:03;;;;;;;31.58;19.38;;;21.30;99.90;;;;;;5094023;28;20044;-72
2021/09/09 08:07:30;;;;;;;26.27;19.30;;;21.40;99.90;;;;;;5093389;28;20484;-72
2021/09/09 08:09:56;;;;;;;25.40;18.70;;;21.60;99.90;;;;;;5093079;28;20047;-72
2021/09/09 08:12:21;;;;;;;26.88;19.75;;;21.90;99.90;;;;;;5093245;28;20036;-72
2021/09/09 08:14:47;;;;;;;27.38;18.77;;;22.00;99.90;;;;;;5093350;28;20032;-72
2021/09/09 08:17:14;;;;;;;28.65;18.63;;;22.20;99.90;;;;;;5093525;28;20042;-73
2021/09/09 08:19:39;;;;;;;24.77;17.90;;;22.40;99.90;;;;;;5092101;28;20039;-72
2021/09/09 08:22:05;;;;;;;26.10;19.00;;;22.60;99.90;;;;;;5091744;28;20511;-72
2021/09/09 08:24:30;;;;;;;24.05;16.98;;;22.50;99.90;;;;;;5093500;28;20036;-72
2021/09/09 08:26:56;;;;;;;25.15;18.35;;;22.60;99.90;;;;;;5092688;28;20044;-73
2021/09/09 08:29:22;;;;;;;24.73;18.42;;;22.70;99.90;;;;;;5091478;28;20051;-72
2021/09/09 08:31:47;;;;;;;23.92;18.52;;;22.80;99.90;;;;;;5091798;28;20115;-73
2021/09/09 08:34:13;;;;;;;23.67;18.40;;;22.90;99.90;;;;;;5091901;28;20040;-72
2021/09/09 08:36:38;;;;;;;23.05;18.58;;;23.00;99.90;;;;;;5093194;28;20075;-72
2021/09/09 08:39:04;;;;;;;24.73;17.75;;;23.00;99.90;;;;;;5092929;28;20036;-73
2021/09/09 08:41:30;;;;;;;23.50;16.67;;;23.00;99.90;;;;;;5095905;28;20174;-73
2021/09/09 08:43:56;;;;;;;18.50;15.98;;;23.30;99.90;;;;;;5097076;28;20055;-73
2021/09/09 08:46:22;;;;;;;19.80;16.17;;;23.50;99.80;;;;;;5097173;28;20035;-71
2021/09/09 08:48:49;;;;;;;21.15;16.08;;;23.70;99.50;;;;;;5097129;28;20170;-73
2021/09/09 08:51:16;;;;;;;19.67;16.33;;;23.70;99.30;;;;;;5096581;28;20040;-73
2021/09/09 08:53:44;;;;;;;24.13;16.17;;;23.80;99.10;;;;;;5095605;28;20117;-73
2021/09/09 08:56:13;;;;;;;19.90;16.20;;;23.90;98.70;;;;;;5096853;28;20488;-73
2021/09/09 08:58:39;;;;;;;19.27;16.30;;;23.90;97.70;;;;;;5095153;28;20071;-73
2021/09/09 09:01:18;;;;;;;21.63;16.15;;;23.80;97.80;;;;;;5096841;28;20043;-73
2021/09/09 09:03:49;;;;;;;22.45;16.13;;;23.90;98.10;;;;;;5096914;28;20040;-72
2021/09/09 09:06:27;;;;;;;22.23;14.80;;;23.80;97.30;;;;;;5095381;28;20036;-73
2021/09/09 09:08:58;;;;;;;21.45;15.20;;;23.90;97.10;;;;;;5095079;28;20043;-73
2021/09/09 09:11:33;;;;;;;25.15;16.10;;;23.90;97.50;;;;;;5094978;28;20044;-72
2021/09/09 09:13:59;;;;;;;23.17;15.13;;;24.00;97.30;;;;;;5096399;28;20384;-72
2021/09/09 09:16:26;;;;;;;20.52;15.20;;;23.90;97.10;;;;;;5096277;28;20582;-72
2021/09/09 09:18:53;;;;;;;18.58;13.98;;;23.90;97.70;;;;;;5096196;28;20040;-73
2021/09/09 09:21:20;;;;;;;16.92;14.38;;;24.10;98.00;;;;;;5096111;28;20036;-72
2021/09/09 09:23:52;;;;;;;20.10;15.05;;;24.00;97.10;;;;;;5096243;28;20047;-72
2021/09/09 09:26:18;;;;;;;20.48;15.20;;;24.20;96.60;;;;;;5096290;28;20122;-73
2021/09/09 09:28:49;;;;;;;20.60;14.50;;;24.20;96.80;;;;;;5095784;28;20083;-73
2021/09/09 09:31:17;;;;;;;18.48;14.35;;;24.20;96.50;;;;;;5094639;28;20048;-73
2021/09/09 09:33:45;;;;;;;17.55;14.73;;;24.10;95.80;;;;;;5094821;28;20047;-73
2021/09/09 09:36:16;;;;;;;19.92;13.60;;;24.10;96.60;;;;;;5095908;28;20119;-73
2021/09/09 09:38:42;;;;;;;20.40;16.10;;;24.10;97.00;;;;;;5094583;28;20189;-73
2021/09/09 09:41:08;;;;;;;20.98;14.85;;;24.20;96.20;;;;;;5096122;28;20141;-73
2021/09/09 09:43:34;;;;;;;22.23;14.75;;;24.30;96.60;;;;;;5094574;28;20089;-73
2021/09/09 09:46:00;;;;;;;17.10;13.73;;;24.20;96.40;;;;;;5095893;28;20115;-72
2021/09/09 09:48:32;;;;;;;17.85;13.35;;;24.20;96.00;;;;;;5094600;28;20040;-72
2021/09/09 09:50:58;;;;;;;15.37;12.73;;;24.30;95.50;;;;;;5095575;28;20048;-73
2021/09/09 09:53:24;;;;;;;16.05;12.75;;;24.20;94.30;;;;;;5095890;28;20040;-73
2021/09/09 09:55:50;;;;;;;16.73;12.15;;;24.40;94.90;;;;;;5095602;28;20447;-73
2021/09/09 09:58:16;;;;;;;17.17;13.98;;;24.50;94.20;;;;;;5077550;28;20040;-73
2021/09/09 10:00:42;;;;;;;18.00;12.95;;;24.50;93.70;;;;;;5093972;28;20139;-72
2021/09/09 10:03:08;;;;;;;18.95;14.07;;;24.40;94.50;;;;;;5095777;28;20551;-72
2021/09/09 10:05:38;;;;;;;15.18;12.02;;;24.40;94.90;;;;;;5095351;28;20119;-73
2021/09/09 10:08:08;;;;;;;14.13;12.13;;;24.40;94.70;;;;;;5095335;28;20032;-73
2021/09/09 10:10:34;;;;;;;16.95;12.25;;;24.50;93.70;;;;;;5094932;28;20127;-72
2021/09/09 10:13:01;;;;;;;17.80;13.02;;;24.40;92.80;;;;;;5095069;28;20510;-73
2021/09/09 10:15:27;;;;;;;21.98;12.23;;;24.40;93.00;;;;;;5095208;28;20097;-72
2021/09/09 10:17:54;;;;;;;15.30;12.70;;;24.50;93.00;;;;;;5095209;28;20036;-73
2021/09/09 10:20:32;;;;;;;16.55;12.80;;;24.60;93.30;;;;;;5094701;28;20089;-72
2021/09/09 10:23:10;;;;;;;16.48;11.95;;;24.70;92.30;;;;;;5094834;28;20039;-72
2021/09/09 10:25:47;;;;;;;16.35;11.93;;;24.70;92.50;;;;;;5077171;28;20032;-73
2021/09/09 10:31:04;;;;;;;14.93;11.93;;;24.60;93.70;;;;;;5094966;28;20098;-73
2021/09/09 10:33:31;;;;;;;14.70;10.40;;;24.60;92.70;;;;;;5076999;28;20040;-73
2021/09/09 10:35:57;;;;;;;12.43;9.50;;;24.60;90.20;;;;;;5094978;28;20040;-73
2021/09/09 10:38:23;;;;;;;14.27;9.88;;;24.70;90.80;;;;;;5094785;28;20040;-73
2021/09/09 10:40:48;;;;;;;15.10;11.80;;;24.80;91.90;;;;;;5093159;28;20052;-73
2021/09/09 10:43:34;;;;;;;17.27;10.57;;;24.90;92.30;;;;;;5094906;28;20123;-73
2021/09/09 10:46:10;;;;;;;16.23;10.95;;;24.80;91.80;;;;;;5094458;28;20085;-72
2021/09/09 10:48:36;;;;;;;14.25;9.05;;;24.80;90.40;;;;;;5092962;28;20118;-73
2021/09/09 10:51:14;;;;;;;16.58;10.60;;;24.90;90.30;;;;;;5094458;28;20036;-72
2021/09/09 10:53:40;;;;;;;15.05;11.60;;;25.00;90.80;;;;;;5094716;28;20047;-72
2021/09/09 10:56:11;;;;;;;15.35;10.75;;;25.00;90.20;;;;;;5093392;28;20150;-73
2021/09/09 10:58:37;;;;;;;12.70;10.25;;;25.00;90.10;;;;;;5094019;28;20040;-72
2021/09/09 11:01:05;;;;;;;17.30;9.70;;;25.00;86.00;;;;;;5094254;28;20075;-73
2021/09/09 11:03:42;;;;;;;13.85;9.88;;;25.10;84.20;;;;;;5094192;28;20111;-72
2021/09/09 11:06:15;;;;;;;14.48;10.25;;;25.10;83.60;;;;;;5093012;28;20119;-72
2021/09/09 11:08:42;;;;;;;11.27;9.30;;;25.20;82.40;;;;;;5094113;28;20423;-72
2021/09/09 11:11:19;;;;;;;11.50;9.23;;;25.30;82.70;;;;;;5094040;28;20076;-72
2021/09/09 11:13:45;;;;;;;11.73;9.32;;;25.40;81.40;;;;;;5094383;28;20381;-72
2021/09/09 11:16:31;;;;;;;15.05;9.50;;;25.40;81.90;;;;;;5093257;28;20113;-72
2021/09/09 11:18:57;;;;;;;11.82;9.02;;;25.40;81.30;;;;;;5093957;28;20043;-72
2021/09/09 11:21:32;;;;;;;14.40;9.77;;;25.40;81.90;;;;;;5092760;28;20053;-71
2021/09/09 11:23:59;;;;;;;12.88;9.32;;;25.50;82.50;;;;;;5093970;28;20052;-72
2021/09/09 11:26:25;;;;;;;13.07;10.68;;;25.50;81.40;;;;;;5094071;28;20054;-73
2021/09/09 11:28:52;;;;;;;13.27;10.35;;;25.50;80.90;;;;;;5092480;28;20497;-72
2021/09/09 11:31:26;;;;;;;13.10;9.38;;;25.50;78.70;;;;;;5092475;28;20087;-72
2021/09/09 11:34:05;;;;;;;15.73;9.70;;;25.40;77.90;;;;;;5093829;28;20074;-72
2021/09/09 11:36:45;;;;;;;11.27;9.20;;;25.50;81.00;;;;;;5093933;28;20081;-72
2021/09/09 11:39:19;;;;;;;13.13;9.75;;;25.50;80.90;;;;;;5093434;28;20036;-72
2021/09/09 11:41:46;;;;;;;15.77;10.15;;;25.50;81.30;;;;;;5092798;28;20050;-73
2021/09/09 11:44:34;;;;;;;13.55;9.35;;;25.50;80.00;;;;;;5093860;28;20087;-73
2021/09/09 11:47:09;;;;;;;12.48;8.95;;;25.70;77.70;;;;;;5094394;28;20051;-73
2021/09/09 11:49:35;;;;;;;12.32;10.10;;;25.60;74.90;;;;;;5093363;28;20089;-72
2021/09/09 11:52:00;;;;;;;10.73;9.18;;;25.70;74.90;;;;;;5093807;28;20036;-72
2021/09/09 11:54:31;;;;;;;15.25;8.75;;;25.70;76.30;;;;;;5093519;28;20443;-73
2021/09/09 11:57:06;;;;;;;14.13;9.55;;;25.70;75.70;;;;;;5093488;28;20044;-73
2021/09/09 11:59:33;;;;;;;13.50;9.25;;;25.70;76.10;;;;;;5093437;28;20118;-73
2021/09/09 12:02:06;;;;;;;11.48;9.25;;;25.70;76.40;;;;;;5093249;28;20054;-72
2021/09/09 12:04:32;;;;;;;;;;;25.80;73.90;;;;;;5092264;28;20085;-72
2021/09/09 12:06:58;;;;;;;11.23;8.32;;;25.80;72.90;;;;;;5093141;28;20350;-73
2021/09/09 12:09:27;;;;;;;13.60;8.98;;;25.90;72.50;;;;;;5091724;28;20078;-73
2021/09/09 12:12:05;;;;;;;12.85;8.52;;;26.00;73.40;;;;;;5092104;28;20040;-73
2021/09/09 12:14:31;;;;;;;11.93;8.35;;;26.00;71.30;;;;;;5094378;28;20040;-72
2021/09/09 12:17:12;;;;;;;14.50;9.38;;;26.00;72.00;;;;;;5096099;28;20058;-73
2021/09/09 12:19:56;;;;;;;13.07;7.72;;;26.10;72.50;;;;;;5096692;28;20115;-74
2021/09/09 12:22:43;;;;;;;8.45;7.63;;;26.10;72.60;;;;;;5079104;28;20048;-73
2021/09/09 12:25:36;;;;;;;14.20;8.27;;;26.30;71.40;;;;;;5096204;28;20044;-74
2021/09/09 12:28:14;;;;;;;;;;;26.40;68.10;;;;;;5095142;28;20454;-73
2021/09/09 12:30:46;;;;;;;11.18;8.80;;;26.30;68.00;;;;;;5095472;28;19920;-73
2021/09/09 12:33:27;;;;;;;9.27;7.38;;;26.40;67.10;;;;;;5097386;28;20504;-74